createdAt,value
2022-12-11T00:02:04.674Z,98.8
2022-12-11T00:04:30.775Z,98.7
2022-12-11T00:06:56.870Z,98.7
2022-12-11T00:09:22.974Z,98.5
2022-12-11T00:11:49.073Z,98.6
2022-12-11T00:14:15.296Z,98.5
2022-12-11T00:16:41.266Z,98.5
2022-12-11T00:19:07.359Z,98.8
2022-12-11T00:21:33.461Z,98.7
2022-12-11T00:23:59.623Z,98.3
2022-12-11T00:26:25.663Z,98.5
2022-12-11T00:28:51.762Z,98
2022-12-11T00:31:17.861Z,97.8
2022-12-11T00:33:42.962Z,97.7
2022-12-11T00:36:09.065Z,97.2
2022-12-11T00:38:35.162Z,97.1
2022-12-11T00:41:01.259Z,97
2022-12-11T00:43:27.344Z,97.2
2022-12-11T00:45:53.457Z,97.1
2022-12-11T00:48:19.554Z,96.9
2022-12-11T00:50:45.643Z,96.8
2022-12-11T00:53:11.738Z,96.5
2022-12-11T00:55:37.832Z,96.6
2022-12-11T00:58:03.946Z,96.7
2022-12-11T01:00:30.056Z,96.6
2022-12-11T01:02:56.136Z,96.5
2022-12-11T01:05:21.240Z,96.3
2022-12-11T01:07:47.364Z,96.3
2022-12-11T01:10:13.447Z,95.8
2022-12-11T01:12:39.525Z,95.4
2022-12-11T01:15:05.657Z,95.7
2022-12-11T01:17:31.804Z,95.9
2022-12-11T01:19:57.847Z,95.9
2022-12-11T01:22:23.931Z,95
2022-12-11T01:24:50.026Z,94.8
2022-12-11T01:27:16.127Z,94.4
2022-12-11T01:29:42.224Z,94.3
2022-12-11T01:34:34.402Z,94.3
2022-12-11T01:36:59.535Z,94
2022-12-11T01:39:25.627Z,93.7
2022-12-11T01:41:51.720Z,93.8
2022-12-11T01:44:17.812Z,94.1
2022-12-11T01:46:43.927Z,94.7
2022-12-11T01:49:10.020Z,94.1
2022-12-11T01:51:36.117Z,93.6
2022-12-11T01:54:02.266Z,92.7
2022-12-11T01:56:28.313Z,91.6
2022-12-11T01:58:54.412Z,91.6
2022-12-11T02:01:20.505Z,90
2022-12-11T02:03:46.594Z,89.9
2022-12-11T02:06:12.686Z,89.2
2022-12-11T02:08:37.811Z,89
2022-12-11T02:11:03.915Z,88.3
2022-12-11T02:13:29.997Z,89.3
2022-12-11T02:15:56.108Z,88.6
2022-12-11T02:18:22.209Z,89
2022-12-11T02:20:48.301Z,89.3
2022-12-11T02:23:14.390Z,89.7
2022-12-11T02:25:40.491Z,90
2022-12-11T02:28:06.599Z,90.2
2022-12-11T02:30:32.688Z,90.5
2022-12-11T02:32:58.789Z,90.7
2022-12-11T02:35:24.888Z,90.7
2022-12-11T02:37:50.989Z,91.1
2022-12-11T02:40:16.096Z,91.2
2022-12-11T02:42:42.190Z,91.5
2022-12-11T02:45:08.293Z,91.2
2022-12-11T02:47:34.390Z,91.8
2022-12-11T02:50:00.483Z,91.7
2022-12-11T02:52:26.585Z,90.5
2022-12-11T02:54:52.679Z,90.6
2022-12-11T02:57:18.780Z,91
2022-12-11T02:59:44.873Z,91.3
2022-12-11T03:02:10.982Z,91
2022-12-11T03:04:37.125Z,91.7
2022-12-11T03:07:03.165Z,91.7
2022-12-11T03:09:29.282Z,91.5
2022-12-11T03:11:54.383Z,91.7
2022-12-11T03:14:20.477Z,91.9
2022-12-11T03:16:46.566Z,91.8
2022-12-11T03:19:12.670Z,92
2022-12-11T03:21:38.825Z,92.5
2022-12-11T03:24:04.861Z,92.4
2022-12-11T03:26:30.968Z,92.4
2022-12-11T03:28:57.062Z,92.6
2022-12-11T03:31:23.187Z,92.9
2022-12-11T03:33:49.264Z,93
2022-12-11T03:36:15.366Z,93.3
2022-12-11T03:38:41.460Z,93.2
2022-12-11T03:41:07.539Z,93.4
2022-12-11T03:43:32.652Z,92.7
2022-12-11T03:45:58.760Z,92.6
2022-12-11T03:48:24.864Z,93
2022-12-11T03:50:50.945Z,92.9
2022-12-11T03:53:17.053Z,92.8
2022-12-11T03:55:43.154Z,93.3
2022-12-11T03:58:09.252Z,93.5
2022-12-11T04:00:35.350Z,93.3
2022-12-11T04:03:01.451Z,93.1
2022-12-11T04:05:27.551Z,93.3
2022-12-11T04:07:53.664Z,93.5
2022-12-11T04:10:19.734Z,94
2022-12-11T04:12:45.830Z,93.7
2022-12-11T04:15:10.950Z,93.8
2022-12-11T04:17:37.035Z,94.1
2022-12-11T04:20:03.146Z,93.9
2022-12-11T04:22:29.233Z,94.2
2022-12-11T04:24:55.349Z,94.5
2022-12-11T04:27:21.444Z,94.6
2022-12-11T04:29:46.561Z,94.8
2022-12-11T04:32:12.656Z,95.2
2022-12-11T04:37:04.849Z,95.8
2022-12-11T04:39:30.953Z,95.8
2022-12-11T04:41:57.056Z,96
2022-12-11T04:44:23.130Z,96.2
2022-12-11T04:46:49.241Z,96.5
2022-12-11T04:49:15.324Z,96.8
2022-12-11T04:51:41.438Z,97
2022-12-11T04:54:07.541Z,96.4
2022-12-11T04:56:33.634Z,96.2
2022-12-11T04:58:59.734Z,96.7
2022-12-11T05:01:24.851Z,96.5
2022-12-11T05:03:50.935Z,96.6
2022-12-11T05:06:17.044Z,96.5
2022-12-11T05:08:43.139Z,96.4
2022-12-11T05:11:09.237Z,96
2022-12-11T05:13:35.323Z,95.7
2022-12-11T05:16:01.434Z,95.8
2022-12-11T05:18:27.519Z,96
2022-12-11T05:20:53.625Z,95.9
2022-12-11T05:23:19.722Z,95.9
2022-12-11T05:25:45.816Z,95.8
2022-12-11T05:28:11.922Z,95.8
2022-12-11T05:30:38.021Z,96
2022-12-11T05:33:03.127Z,96.1
2022-12-11T05:35:29.225Z,96
2022-12-11T05:37:55.337Z,96.3
2022-12-11T05:40:21.423Z,96.6
2022-12-11T05:42:47.507Z,96.5
2022-12-11T05:45:13.624Z,96.7
2022-12-11T05:47:39.698Z,96.9
2022-12-11T05:50:05.819Z,97.2
2022-12-11T05:52:31.907Z,97.6
2022-12-11T05:54:58.021Z,97.4
2022-12-11T05:57:24.094Z,97.4
2022-12-11T05:59:50.194Z,97.8
2022-12-11T06:02:16.292Z,98.1
2022-12-11T06:04:41.482Z,98.2
2022-12-11T06:07:07.499Z,98.2
2022-12-11T06:09:33.616Z,98.3
2022-12-11T06:11:59.703Z,98.1
2022-12-11T06:14:25.803Z,97.9
2022-12-11T06:16:51.912Z,97.9
2022-12-11T06:19:17.983Z,97.6
2022-12-11T06:21:44.085Z,97.6
2022-12-11T06:24:10.167Z,97.8
2022-12-11T06:26:36.338Z,98.1
2022-12-11T06:29:02.375Z,98.2
2022-12-11T06:31:28.496Z,98.4
2022-12-11T06:33:54.622Z,98.5
2022-12-11T06:36:19.679Z,98.6
2022-12-11T06:38:45.788Z,98.7
2022-12-11T06:41:11.874Z,98.9
2022-12-11T06:43:37.976Z,99.1
2022-12-11T06:46:04.078Z,99.3
2022-12-11T06:48:30.185Z,99.5
2022-12-11T06:50:56.273Z,99.5
2022-12-11T06:53:22.459Z,99.5
2022-12-11T06:55:48.463Z,99.2
2022-12-11T06:58:14.568Z,98.9
2022-12-11T07:00:40.652Z,98.9
2022-12-11T07:03:06.768Z,99.1
2022-12-11T07:05:32.841Z,98.7
2022-12-11T07:07:57.952Z,98.6
2022-12-11T07:10:24.057Z,98.8
2022-12-11T07:12:50.164Z,99
2022-12-11T07:15:16.263Z,99
2022-12-11T07:17:42.372Z,99.2
2022-12-11T07:20:08.513Z,99.2
2022-12-11T07:22:34.557Z,99.3
2022-12-11T07:25:00.660Z,99.2
2022-12-11T07:27:26.751Z,99.1
2022-12-11T07:29:52.850Z,98.9
2022-12-11T07:32:18.939Z,98.8
2022-12-11T07:34:45.060Z,98.3
2022-12-11T07:37:11.120Z,97.7
2022-12-11T07:39:36.237Z,97.5
2022-12-11T07:42:02.344Z,97.6
2022-12-11T07:44:28.447Z,97
2022-12-11T07:46:54.532Z,96.9
2022-12-11T07:49:20.638Z,96.8
2022-12-11T07:51:46.724Z,96.5
2022-12-11T07:54:12.850Z,96.2
2022-12-11T07:56:38.927Z,96.9
2022-12-11T07:59:05.014Z,95.6
2022-12-11T08:01:31.127Z,95.1
2022-12-11T08:03:57.288Z,94.8
2022-12-11T08:06:23.297Z,94.8
2022-12-11T08:08:49.405Z,94.8
2022-12-11T08:11:14.531Z,94.9
2022-12-11T08:13:40.629Z,95.5
2022-12-11T08:16:06.711Z,96
2022-12-11T08:18:32.830Z,96.4
2022-12-11T08:20:58.923Z,96.4
2022-12-11T08:23:25.015Z,96.1
2022-12-11T08:25:51.110Z,96.8
2022-12-11T08:28:17.196Z,96.6
2022-12-11T08:30:43.301Z,96.4
2022-12-11T08:33:09.415Z,96.6
2022-12-11T08:35:35.491Z,96
2022-12-11T08:38:01.596Z,96.5
2022-12-11T08:40:27.705Z,97
2022-12-11T08:42:52.807Z,96.7
2022-12-11T08:45:18.961Z,97.1
2022-12-11T08:47:45.030Z,97.3
2022-12-11T08:50:11.118Z,97.5
2022-12-11T08:52:37.216Z,97.8
2022-12-11T08:55:03.326Z,98.1
2022-12-11T08:57:29.408Z,98.6
2022-12-11T08:59:55.522Z,99.1
2022-12-11T09:02:21.591Z,99
2022-12-11T09:04:47.690Z,99
2022-12-11T09:07:13.774Z,98.9
2022-12-11T09:09:39.886Z,99.3
2022-12-11T09:12:05.977Z,99.8
2022-12-11T09:14:31.101Z,100
2022-12-11T09:16:57.205Z,100
2022-12-11T09:19:23.307Z,100
2022-12-11T09:21:49.408Z,100
2022-12-11T09:24:15.497Z,100
2022-12-11T09:26:41.598Z,100
2022-12-11T09:29:07.671Z,100
2022-12-11T09:31:33.784Z,99.6
2022-12-11T09:33:59.874Z,99.3
2022-12-11T09:36:25.974Z,99.3
2022-12-11T09:38:52.126Z,98.7
2022-12-11T09:41:18.188Z,98
2022-12-11T09:43:44.354Z,97.9
2022-12-11T09:46:09.387Z,96.9
2022-12-11T09:48:35.513Z,97.4
2022-12-11T09:51:01.577Z,97.5
2022-12-11T09:53:27.672Z,97.9
2022-12-11T09:55:53.770Z,97.7
2022-12-11T09:58:19.904Z,98.2
2022-12-11T10:00:45.959Z,98
2022-12-11T10:03:12.072Z,98.1
2022-12-11T10:05:38.176Z,98.2
2022-12-11T10:08:04.260Z,98.4
2022-12-11T10:10:30.358Z,98.4
2022-12-11T10:12:56.448Z,98.3
2022-12-11T10:15:22.578Z,98.7
2022-12-11T10:17:47.682Z,99.3
2022-12-11T10:20:13.767Z,98.7
2022-12-11T10:22:39.861Z,98
2022-12-11T10:25:05.992Z,97
2022-12-11T10:27:32.076Z,97.2
2022-12-11T10:29:58.156Z,96.7
2022-12-11T10:32:24.264Z,96.7
2022-12-11T10:34:50.357Z,96.9
2022-12-11T10:37:16.461Z,96.2
2022-12-11T10:39:42.562Z,96.5
2022-12-11T10:42:08.638Z,96.6
2022-12-11T10:44:34.754Z,95.9
2022-12-11T10:47:00.852Z,95
2022-12-11T10:49:25.995Z,94.3
2022-12-11T10:51:52.057Z,94.5
2022-12-11T10:54:18.156Z,94.8
2022-12-11T10:59:10.393Z,97.2
2022-12-11T11:04:02.546Z,95.8
2022-12-11T11:06:28.641Z,96.9
2022-12-11T11:08:54.729Z,97.3
2022-12-11T11:11:20.835Z,96.9
2022-12-11T11:13:46.925Z,96.5
2022-12-11T11:16:13.202Z,95.9
2022-12-11T11:18:39.119Z,96.4
2022-12-11T11:21:04.270Z,96.5
2022-12-11T11:23:30.432Z,96.3
2022-12-11T11:25:56.471Z,95.4
2022-12-11T11:28:22.548Z,96.1
2022-12-11T11:30:48.622Z,96.4
2022-12-11T11:33:14.728Z,95.8
2022-12-11T11:35:40.823Z,95.3
2022-12-11T11:38:06.942Z,95.7
2022-12-11T11:40:33.039Z,94.1
2022-12-11T11:42:59.123Z,93
2022-12-11T11:45:25.205Z,90.2
2022-12-11T11:47:51.329Z,90.9
2022-12-11T11:50:17.418Z,91.9
2022-12-11T11:52:42.525Z,91.7
2022-12-11T11:55:08.632Z,90.4
2022-12-11T11:57:34.716Z,89.2
2022-12-11T12:00:00.808Z,89.7
2022-12-11T12:02:26.925Z,90.3
2022-12-11T12:04:53.019Z,89.7
2022-12-11T12:07:19.127Z,89.7
2022-12-11T12:09:45.293Z,90.3
2022-12-11T12:12:11.319Z,89.7
2022-12-11T12:14:37.401Z,89.6
2022-12-11T12:17:03.495Z,89.8
2022-12-11T12:19:29.605Z,90.2
2022-12-11T12:21:55.692Z,89.8
2022-12-11T12:24:20.805Z,89.8
2022-12-11T12:26:46.908Z,90.2
2022-12-11T12:29:13.013Z,90.8
2022-12-11T12:31:39.095Z,91.3
2022-12-11T12:34:05.201Z,90.6
2022-12-11T12:36:31.290Z,90.4
2022-12-11T12:38:56.426Z,91.1
2022-12-11T12:41:22.515Z,91
2022-12-11T12:43:48.613Z,91.7
2022-12-11T12:46:14.728Z,91.2
2022-12-11T12:48:40.824Z,90.5
2022-12-11T12:51:06.890Z,89.6
2022-12-11T12:53:32.994Z,90
2022-12-11T12:55:59.107Z,90.2
2022-12-11T12:58:25.191Z,89.7
2022-12-11T13:00:51.395Z,88.2
2022-12-11T13:03:17.380Z,89.7
2022-12-11T13:05:43.484Z,89.2
2022-12-11T13:08:09.576Z,90
2022-12-11T13:10:34.675Z,89.2
2022-12-11T13:13:00.785Z,88.6
2022-12-11T13:15:26.875Z,89
2022-12-11T13:17:52.997Z,89.2
2022-12-11T13:20:19.082Z,89.4
2022-12-11T13:22:45.201Z,89.7
2022-12-11T13:25:11.277Z,89.7
2022-12-11T13:27:37.501Z,90.3
2022-12-11T13:30:03.460Z,90.2
2022-12-11T13:32:29.550Z,89.5
2022-12-11T13:34:55.677Z,89.4
2022-12-11T13:37:21.767Z,89.8
2022-12-11T13:39:47.862Z,89.5
2022-12-11T13:42:12.974Z,89.4
2022-12-11T13:44:39.129Z,89.8
2022-12-11T13:47:05.162Z,89.5
2022-12-11T13:49:31.265Z,89.7
2022-12-11T13:51:57.369Z,89.9
2022-12-11T13:54:23.518Z,90.5
2022-12-11T13:56:49.560Z,89.3
2022-12-11T13:59:15.658Z,88.3
2022-12-11T14:01:41.752Z,88.6
2022-12-11T14:04:07.856Z,88.3
2022-12-11T14:06:33.938Z,88.4
2022-12-11T14:09:00.123Z,88.5
2022-12-11T14:11:26.160Z,88
2022-12-11T14:13:51.261Z,88.4
2022-12-11T14:16:17.344Z,89.5
2022-12-11T14:18:43.454Z,89.5
2022-12-11T14:21:09.538Z,90.5
2022-12-11T14:23:35.663Z,90.4
2022-12-11T14:26:01.738Z,91.1
2022-12-11T14:28:27.834Z,90.6
2022-12-11T14:30:54.044Z,91.1
2022-12-11T14:33:20.039Z,90.1
2022-12-11T14:35:46.173Z,90
2022-12-11T14:38:12.236Z,89.8
2022-12-11T14:40:38.323Z,89.6
2022-12-11T14:43:04.568Z,89.3
2022-12-11T14:45:29.670Z,89.8
2022-12-11T14:47:55.661Z,89
2022-12-11T14:50:21.744Z,88.3
2022-12-11T14:52:47.838Z,88.4
2022-12-11T14:55:13.948Z,88.8
2022-12-11T14:57:40.031Z,88.6
2022-12-11T15:00:06.120Z,89.4
2022-12-11T15:02:32.233Z,89.7
2022-12-11T15:04:58.327Z,90.5
2022-12-11T15:07:24.431Z,90.4
2022-12-11T15:09:50.512Z,90.7
2022-12-11T15:12:16.620Z,90.6
2022-12-11T15:14:42.726Z,91
2022-12-11T15:17:07.822Z,91.6
2022-12-11T15:19:33.911Z,91
2022-12-11T15:22:00.070Z,90.9
2022-12-11T15:24:26.120Z,89.7
2022-12-11T15:26:52.201Z,89.3
2022-12-11T15:29:18.313Z,89.4
2022-12-11T15:31:44.426Z,88.8
2022-12-11T15:34:10.514Z,88.9
2022-12-11T15:36:36.635Z,89
2022-12-11T15:39:02.709Z,89.5
2022-12-11T15:41:28.793Z,90
2022-12-11T15:43:54.891Z,89.7
2022-12-11T15:46:20.998Z,88.8
2022-12-11T15:48:46.135Z,89
2022-12-11T15:51:12.197Z,89.7
2022-12-11T15:53:38.305Z,90.2
2022-12-11T15:56:04.406Z,90.6
2022-12-11T15:58:30.499Z,90.5
2022-12-11T16:00:56.595Z,91.2
2022-12-11T16:03:22.695Z,91.5
2022-12-11T16:05:48.783Z,91
2022-12-11T16:08:14.897Z,91.2
2022-12-11T16:10:40.993Z,90.9
2022-12-11T16:13:07.140Z,91
2022-12-11T16:15:33.182Z,91.2
2022-12-11T16:17:59.282Z,91.1
2022-12-11T16:20:24.664Z,91
2022-12-11T16:22:50.495Z,91.2
2022-12-11T16:25:16.604Z,91.3
2022-12-11T16:27:42.830Z,91.4
2022-12-11T16:30:08.790Z,91.5
2022-12-11T16:32:34.872Z,92.3
2022-12-11T16:35:00.972Z,92
2022-12-11T16:37:27.120Z,91.4
2022-12-11T16:39:53.160Z,91
2022-12-11T16:42:19.309Z,90.8
2022-12-11T16:44:45.370Z,91.1
2022-12-11T16:47:11.467Z,91.7
2022-12-11T16:49:37.632Z,91.8
2022-12-11T16:52:02.742Z,91.5
2022-12-11T16:54:28.785Z,90.8
2022-12-11T16:56:54.961Z,89.9
2022-12-11T16:59:20.967Z,91.3
2022-12-11T17:01:47.069Z,91.5
2022-12-11T17:04:13.160Z,91.5
2022-12-11T17:06:39.270Z,92.1
2022-12-11T17:09:05.367Z,92.4
2022-12-11T17:11:31.458Z,92.7
2022-12-11T17:13:57.633Z,93.2
2022-12-11T17:16:23.651Z,94
2022-12-11T17:18:49.919Z,94.2
2022-12-11T17:21:16.011Z,94.5
2022-12-11T17:23:40.997Z,94.6
2022-12-11T17:26:07.109Z,95.5
2022-12-11T17:30:59.252Z,94.9
2022-12-11T17:33:25.362Z,95
2022-12-11T17:35:51.441Z,95.3
2022-12-11T17:38:17.545Z,95
2022-12-11T17:40:43.637Z,95.7
2022-12-11T17:43:09.758Z,95.7
2022-12-11T17:45:35.838Z,96.1
2022-12-11T17:48:01.943Z,96
2022-12-11T17:50:28.135Z,96.7
2022-12-11T17:52:54.136Z,96.7
2022-12-11T17:55:19.273Z,96.8
2022-12-11T17:57:45.341Z,97.2
2022-12-11T18:00:11.443Z,97.3
2022-12-11T18:02:37.562Z,97.6
2022-12-11T18:05:03.647Z,97.6
2022-12-11T18:07:29.735Z,97.5
2022-12-11T18:09:55.831Z,97.3
2022-12-11T18:12:21.911Z,97.4
2022-12-11T18:14:48.071Z,97.4
2022-12-11T18:17:14.127Z,97.3
2022-12-11T18:19:40.231Z,97.2
2022-12-11T18:22:06.322Z,97.3
2022-12-11T18:24:32.423Z,97.5
2022-12-11T18:26:57.561Z,98
2022-12-11T18:29:23.623Z,98.2
2022-12-11T18:31:49.729Z,98.2
2022-12-11T18:34:15.831Z,98.3
2022-12-11T18:36:41.992Z,98.3
2022-12-11T18:39:08.018Z,98.4
2022-12-11T18:41:34.118Z,98.6
2022-12-11T18:44:00.326Z,98.9
2022-12-11T18:46:26.293Z,99.3
2022-12-11T18:48:52.406Z,99.5
2022-12-11T18:51:18.559Z,99.8
2022-12-11T18:53:44.620Z,99.5
2022-12-11T18:56:10.682Z,99
2022-12-11T18:58:35.815Z,98.7
2022-12-11T19:01:01.909Z,98.8
2022-12-11T19:03:28.047Z,98.8
2022-12-11T19:05:54.090Z,98.8
2022-12-11T19:08:20.185Z,98.3
2022-12-11T19:10:46.295Z,98.3
2022-12-11T19:13:12.463Z,98.4
2022-12-11T19:15:38.510Z,98.1
2022-12-11T19:18:04.586Z,98
2022-12-11T19:20:30.698Z,98.3
2022-12-11T19:22:56.766Z,97.8
2022-12-11T19:25:22.881Z,97.5
2022-12-11T19:27:48.979Z,97.8
2022-12-11T19:30:14.107Z,97.7
2022-12-11T19:32:40.192Z,98
2022-12-11T19:35:06.292Z,98
2022-12-11T19:37:32.389Z,98.1
2022-12-11T19:39:58.493Z,98.3
2022-12-11T19:42:24.682Z,98.5
2022-12-11T19:44:50.670Z,98.8
2022-12-11T19:47:16.770Z,99.2
2022-12-11T19:49:42.867Z,99.3
2022-12-11T19:52:08.962Z,99.2
2022-12-11T19:54:35.071Z,99.2
2022-12-11T19:57:01.199Z,99
2022-12-11T19:59:27.251Z,99
2022-12-11T20:01:52.362Z,98.4
2022-12-11T20:04:18.453Z,98.1
2022-12-11T20:06:44.549Z,98.2
2022-12-11T20:09:10.707Z,97.8
2022-12-11T20:11:36.766Z,97.8
2022-12-11T20:14:02.875Z,97.8
2022-12-11T20:16:28.987Z,98
2022-12-11T20:18:55.051Z,98
2022-12-11T20:21:21.254Z,97.7
2022-12-11T20:23:47.255Z,98.1
2022-12-11T20:26:13.359Z,98
2022-12-11T20:28:39.466Z,97.7
2022-12-11T20:31:05.529Z,97.8
2022-12-11T20:33:30.634Z,97.6
2022-12-11T20:35:56.741Z,97.7
2022-12-11T20:38:22.827Z,97.8
2022-12-11T20:40:48.942Z,97.8
2022-12-11T20:43:15.063Z,97.7
2022-12-11T20:45:41.291Z,97.1
2022-12-11T20:48:06.241Z,97
2022-12-11T20:50:32.344Z,96.8
2022-12-11T20:52:58.440Z,96.9
2022-12-11T20:55:24.616Z,96.8
2022-12-11T20:57:50.649Z,96.9
2022-12-11T21:00:16.770Z,96.5
2022-12-11T21:02:42.849Z,96.6
2022-12-11T21:05:08.931Z,96.2
2022-12-11T21:07:35.228Z,96.5
2022-12-11T21:10:01.123Z,96.7
2022-12-11T21:12:27.225Z,96.9
2022-12-11T21:14:53.395Z,97
2022-12-11T21:17:19.439Z,96.7
2022-12-11T21:19:44.535Z,95.3
2022-12-11T21:22:10.641Z,95.7
2022-12-11T21:24:36.855Z,95.3
2022-12-11T21:27:02.999Z,95.6
2022-12-11T21:29:28.930Z,95.8
2022-12-11T21:31:55.064Z,95.4
2022-12-11T21:34:21.120Z,95.6
2022-12-11T21:36:47.205Z,96
2022-12-11T21:39:13.377Z,95.9
2022-12-11T21:41:39.488Z,95.7
2022-12-11T21:44:05.510Z,95.9
2022-12-11T21:46:31.787Z,95.9
2022-12-11T21:48:57.732Z,96.1
2022-12-11T21:51:22.821Z,96.2
2022-12-11T21:53:48.909Z,96.5
2022-12-11T21:56:15.007Z,96.5
2022-12-11T21:58:41.114Z,95.6
2022-12-11T22:01:07.221Z,95.4
2022-12-11T22:03:33.330Z,94.3
2022-12-11T22:05:59.409Z,92.9
2022-12-11T22:08:25.539Z,92.4
2022-12-11T22:10:51.802Z,92.6
2022-12-11T22:13:17.689Z,90.3
2022-12-11T22:15:43.796Z,90
2022-12-11T22:18:09.890Z,90.5
2022-12-11T22:20:35.983Z,91.3
2022-12-11T22:23:01.086Z,91.8
2022-12-11T22:25:27.189Z,92.6
2022-12-11T22:27:53.277Z,93
2022-12-11T22:30:19.396Z,93.4
2022-12-11T22:32:45.511Z,93.6
2022-12-11T22:35:11.618Z,93.3
2022-12-11T22:37:37.663Z,93.1
2022-12-11T22:40:03.781Z,91.6
2022-12-11T22:42:29.872Z,89.9
2022-12-11T22:44:55.985Z,88.2
2022-12-11T22:47:22.056Z,88.7
2022-12-11T22:49:48.156Z,89.3
2022-12-11T22:52:14.305Z,89.8
2022-12-11T22:54:39.390Z,89
2022-12-11T22:57:05.460Z,89.3
2022-12-11T22:59:31.610Z,89.5
2022-12-11T23:01:57.765Z,88.8
2022-12-11T23:04:23.821Z,88
2022-12-11T23:06:49.856Z,88.2
2022-12-11T23:09:16.076Z,86.2
2022-12-11T23:11:42.057Z,87
2022-12-11T23:14:08.214Z,87.3
2022-12-11T23:16:34.247Z,87.3
2022-12-11T23:19:00.354Z,88
2022-12-11T23:21:26.455Z,89.2
2022-12-11T23:23:52.531Z,90.2
2022-12-11T23:26:17.671Z,91.1
2022-12-11T23:28:43.758Z,91.4
2022-12-11T23:31:09.836Z,90.9
2022-12-11T23:33:35.955Z,91.5
2022-12-11T23:36:02.052Z,91.5
2022-12-11T23:38:28.201Z,91.7
2022-12-11T23:40:54.275Z,91.2
2022-12-11T23:43:20.329Z,91.4
2022-12-11T23:45:46.415Z,91.3
2022-12-11T23:48:12.528Z,92
2022-12-11T23:50:38.629Z,91.8
2022-12-11T23:53:04.712Z,91.4
2022-12-11T23:55:30.822Z,91.2
2022-12-11T23:57:55.951Z,91
